createdAt,value
2023-04-11T00:01:26.452Z,0.90
2023-04-11T00:03:53.287Z,1.00
2023-04-11T00:06:20.454Z,1.02
2023-04-11T00:08:47.929Z,0.90
2023-04-11T00:11:14.982Z,0.73
2023-04-11T00:13:42.680Z,0.82
2023-04-11T00:16:10.111Z,0.80
2023-04-11T00:18:39.442Z,0.85
2023-04-11T00:21:08.191Z,1.00
2023-04-11T00:23:34.884Z,0.80
2023-04-11T00:26:01.885Z,0.80
2023-04-11T00:28:28.803Z,1.15
2023-04-11T00:30:55.605Z,0.80
2023-04-11T00:33:22.703Z,1.13
2023-04-11T00:35:49.321Z,1.00
2023-04-11T00:38:16.670Z,0.82
2023-04-11T00:40:43.885Z,0.82
2023-04-11T00:43:10.614Z,0.85
2023-04-11T00:45:39.049Z,0.80
2023-04-11T00:48:06.567Z,1.00
2023-04-11T00:50:33.280Z,1.08
2023-04-11T00:53:00.186Z,1.13
2023-04-11T00:55:27.418Z,0.85
2023-04-11T00:57:55.054Z,1.08
2023-04-11T01:00:22.520Z,0.60
2023-04-11T01:02:49.938Z,1.02
2023-04-11T01:05:17.269Z,1.27
2023-04-11T01:07:47.070Z,0.77
2023-04-11T01:10:15.086Z,1.05
2023-04-11T01:12:42.523Z,1.10
2023-04-11T01:15:10.958Z,0.90
2023-04-11T01:17:37.929Z,1.15
2023-04-11T01:20:07.957Z,0.82
2023-04-11T01:22:37.228Z,1.00
2023-04-11T01:25:04.956Z,1.75
2023-04-11T01:27:34.158Z,1.58
2023-04-11T01:30:01.668Z,2.30
2023-04-11T01:32:28.493Z,1.17
2023-04-11T01:34:57.579Z,1.50
2023-04-11T01:37:25.125Z,1.83
2023-04-11T01:39:51.915Z,1.73
2023-04-11T01:42:21.165Z,1.45
2023-04-11T01:44:50.007Z,1.67
2023-04-11T01:47:16.719Z,1.30
2023-04-11T01:49:43.701Z,1.00
2023-04-11T01:52:10.582Z,1.35
2023-04-11T01:54:37.455Z,1.58
2023-04-11T01:57:06.137Z,1.20
2023-04-11T01:59:32.951Z,1.02
2023-04-11T02:02:00.535Z,1.10
2023-04-11T02:04:27.310Z,0.90
2023-04-11T02:06:54.147Z,0.60
2023-04-11T02:09:21.198Z,0.68
2023-04-11T02:11:47.798Z,0.60
2023-04-11T02:14:16.384Z,0.90
2023-04-11T02:16:55.060Z,0.80
2023-04-11T02:19:23.576Z,0.90
2023-04-11T02:21:52.223Z,0.68
2023-04-11T02:24:19.089Z,0.60
2023-04-11T02:26:46.110Z,0.65
2023-04-11T02:29:12.956Z,0.52
2023-04-11T02:31:39.626Z,0.40
2023-04-11T02:34:06.443Z,0.60
2023-04-11T02:36:34.747Z,0.80
2023-04-11T02:39:01.347Z,0.68
2023-04-11T02:41:28.200Z,0.38
2023-04-11T02:43:54.748Z,0.70
2023-04-11T02:46:22.458Z,0.80
2023-04-11T02:48:49.145Z,0.70
2023-04-11T02:51:15.783Z,0.60
2023-04-11T02:53:42.681Z,0.65
2023-04-11T02:56:19.199Z,0.43
2023-04-11T02:58:48.902Z,0.40
2023-04-11T03:01:21.676Z,0.52
2023-04-11T03:03:48.636Z,0.40
2023-04-11T03:06:16.185Z,0.70
2023-04-11T03:08:43.962Z,0.32
2023-04-11T03:11:10.644Z,0.40
2023-04-11T03:13:39.268Z,0.30
2023-04-11T03:16:06.925Z,0.40
2023-04-11T03:18:33.645Z,0.40
2023-04-11T03:21:04.856Z,0.50
2023-04-11T03:23:32.141Z,0.45
2023-04-11T03:26:00.265Z,0.60
2023-04-11T03:28:27.688Z,0.50
2023-04-11T03:30:55.155Z,0.40
2023-04-11T03:33:23.595Z,0.50
2023-04-11T03:35:50.261Z,0.30
2023-04-11T03:38:16.965Z,0.75
2023-04-11T03:40:43.649Z,0.38
2023-04-11T03:43:15.771Z,0.50
2023-04-11T03:45:42.700Z,0.47
2023-04-11T03:48:20.037Z,0.50
2023-04-11T03:50:55.960Z,0.50
2023-04-11T03:53:28.421Z,0.50
2023-04-11T03:56:01.502Z,0.60
2023-04-11T03:58:34.175Z,0.50
2023-04-11T04:01:02.565Z,0.60
2023-04-11T04:03:29.974Z,0.50
2023-04-11T04:05:58.121Z,0.55
2023-04-11T04:08:24.751Z,0.50
2023-04-11T04:10:51.964Z,0.40
2023-04-11T04:13:19.305Z,0.40
2023-04-11T04:16:03.555Z,0.50
2023-04-11T04:18:32.358Z,1.10
2023-04-11T04:21:00.482Z,1.25
2023-04-11T04:23:27.273Z,0.85
2023-04-11T04:26:17.242Z,0.60
2023-04-11T04:28:53.948Z,0.57
2023-04-11T04:31:29.830Z,0.50
2023-04-11T04:34:08.583Z,0.50
2023-04-11T04:36:48.164Z,0.60
2023-04-11T04:39:21.230Z,0.77
2023-04-11T04:41:58.534Z,0.40
2023-04-11T04:44:31.046Z,0.57
2023-04-11T04:47:02.304Z,0.57
2023-04-11T04:49:29.259Z,0.52
2023-04-11T04:51:56.062Z,0.65
2023-04-11T04:54:23.816Z,1.08
2023-04-11T04:56:50.362Z,0.68
2023-04-11T04:59:18.742Z,0.70
2023-04-11T05:01:51.573Z,0.88
2023-04-11T05:04:24.115Z,0.90
2023-04-11T05:06:54.691Z,0.63
2023-04-11T05:09:21.854Z,0.63
2023-04-11T05:11:50.978Z,0.65
2023-04-11T05:14:19.184Z,0.68
2023-04-11T05:16:46.356Z,0.75
2023-04-11T05:19:13.390Z,0.57
2023-04-11T05:21:44.222Z,0.70
2023-04-11T05:24:12.110Z,0.60
2023-04-11T05:26:39.593Z,0.65
2023-04-11T05:29:06.953Z,0.90
2023-04-11T05:31:33.880Z,0.65
2023-04-11T05:34:02.242Z,0.60
2023-04-11T05:36:29.389Z,0.60
2023-04-11T05:38:56.410Z,0.63
2023-04-11T05:41:23.146Z,0.80
2023-04-11T05:43:49.719Z,0.88
2023-04-11T05:46:17.424Z,0.65
2023-04-11T05:48:44.145Z,0.60
2023-04-11T05:51:11.191Z,0.68
2023-04-11T05:53:37.843Z,0.50
2023-04-11T05:56:05.032Z,1.00
2023-04-11T05:58:31.774Z,0.68
2023-04-11T06:00:59.992Z,0.70
2023-04-11T06:03:27.340Z,0.45
2023-04-11T06:05:54.305Z,0.63
2023-04-11T06:08:21.599Z,0.60
2023-04-11T06:10:48.280Z,0.90
2023-04-11T06:13:15.280Z,0.60
2023-04-11T06:15:42.092Z,0.57
2023-04-11T06:18:09.030Z,0.60
2023-04-11T06:20:35.727Z,0.50
2023-04-11T06:23:02.371Z,0.40
2023-04-11T06:25:29.273Z,0.55
2023-04-11T06:27:56.032Z,0.88
2023-04-11T06:30:22.991Z,0.57
2023-04-11T06:32:49.882Z,0.68
2023-04-11T06:35:16.586Z,0.55
2023-04-11T06:37:43.279Z,0.77
2023-04-11T06:40:10.719Z,0.80
2023-04-11T06:42:37.433Z,0.80
2023-04-11T06:45:06.270Z,1.08
2023-04-11T06:47:33.083Z,0.40
2023-04-11T06:49:59.961Z,0.40
2023-04-11T06:52:28.287Z,0.75
2023-04-11T06:54:54.968Z,0.60
2023-04-11T06:57:21.928Z,0.50
2023-04-11T06:59:48.701Z,0.40
2023-04-11T07:02:15.558Z,0.50
2023-04-11T07:04:42.650Z,0.30
2023-04-11T07:07:09.521Z,0.30
2023-04-11T07:09:36.299Z,0.40
2023-04-11T07:12:02.944Z,0.55
2023-04-11T07:14:29.705Z,0.30
2023-04-11T07:16:56.386Z,0.45
2023-04-11T07:19:22.958Z,0.30
2023-04-11T07:21:49.815Z,0.20
2023-04-11T07:24:18.619Z,0.20
2023-04-11T07:26:46.729Z,0.40
2023-04-11T07:29:14.936Z,0.40
2023-04-11T07:31:42.029Z,0.30
2023-04-11T07:34:08.880Z,0.20
2023-04-11T07:36:36.144Z,0.20
2023-04-11T07:39:04.363Z,0.32
2023-04-11T07:41:31.349Z,0.50
2023-04-11T07:43:58.269Z,0.20
2023-04-11T07:46:25.296Z,0.17
2023-04-11T07:48:52.035Z,0.40
2023-04-11T07:51:18.995Z,0.40
2023-04-11T07:53:45.965Z,0.40
2023-04-11T07:56:13.618Z,0.20
2023-04-11T07:58:40.492Z,0.25
2023-04-11T08:01:19.026Z,0.30
2023-04-11T08:03:45.759Z,0.63
2023-04-11T08:06:12.390Z,0.30
2023-04-11T08:08:39.114Z,0.40
2023-04-11T08:11:06.151Z,0.25
2023-04-11T08:13:32.699Z,0.20
2023-04-11T08:15:59.459Z,0.40
2023-04-11T08:18:26.060Z,0.20
2023-04-11T08:20:52.976Z,0.15
2023-04-11T08:23:21.707Z,0.30
2023-04-11T08:25:51.274Z,0.17
2023-04-11T08:28:18.275Z,0.38
2023-04-11T08:30:45.133Z,0.30
2023-04-11T08:33:12.288Z,0.20
2023-04-11T08:35:42.965Z,0.20
2023-04-11T08:38:09.729Z,0.20
2023-04-11T08:40:36.312Z,0.20
2023-04-11T08:43:10.176Z,0.20
2023-04-11T08:45:36.752Z,0.40
2023-04-11T08:48:03.428Z,0.20
2023-04-11T08:50:30.170Z,0.13
2023-04-11T08:53:02.648Z,0.30
2023-04-11T08:55:30.003Z,0.20
2023-04-11T08:57:59.227Z,0.20
2023-04-11T09:00:29.273Z,0.45
2023-04-11T09:03:04.331Z,0.30
2023-04-11T09:05:36.138Z,0.10
2023-04-11T09:08:06.270Z,0.30
2023-04-11T09:10:33.271Z,0.22
2023-04-11T09:13:00.620Z,0.30
2023-04-11T09:15:30.226Z,0.30
2023-04-11T09:18:00.337Z,0.20
2023-04-11T09:20:30.391Z,0.30
2023-04-11T09:23:01.234Z,0.20
2023-04-11T09:25:28.016Z,0.20
2023-04-11T09:28:09.090Z,0.20
2023-04-11T09:30:36.407Z,0.20
2023-04-11T09:33:24.042Z,0.20
2023-04-11T09:35:55.288Z,0.20
2023-04-11T09:38:48.259Z,0.20
2023-04-11T09:41:15.168Z,0.32
2023-04-11T09:43:53.312Z,0.20
2023-04-11T09:46:21.240Z,1.08
2023-04-11T09:48:49.007Z,0.30
2023-04-11T09:51:28.161Z,0.28
2023-04-11T09:54:03.315Z,0.40
2023-04-11T09:56:31.026Z,0.30
2023-04-11T09:59:00.557Z,0.40
2023-04-11T10:01:27.299Z,0.22
2023-04-11T10:03:55.778Z,0.50
2023-04-11T10:06:35.009Z,0.28
2023-04-11T10:09:11.173Z,0.40
2023-04-11T10:11:43.063Z,0.40
2023-04-11T10:14:29.760Z,0.40
2023-04-11T10:17:24.380Z,0.30
2023-04-11T10:19:57.471Z,0.13
2023-04-11T10:22:46.618Z,0.30
2023-04-11T10:25:16.873Z,0.30
2023-04-11T10:28:00.946Z,0.75
2023-04-11T10:30:39.851Z,0.20
2023-04-11T10:33:15.773Z,0.30
2023-04-11T10:36:05.509Z,0.55
2023-04-11T10:38:41.808Z,0.20
2023-04-11T10:41:27.776Z,0.35
2023-04-11T10:44:24.647Z,0.40
2023-04-11T10:46:54.446Z,0.30
2023-04-11T10:49:47.438Z,0.50
2023-04-11T10:52:22.659Z,0.40
2023-04-11T10:54:51.500Z,0.30
2023-04-11T10:57:19.130Z,0.30
2023-04-11T10:59:51.577Z,0.45
2023-04-11T11:02:22.022Z,0.45
2023-04-11T11:04:49.435Z,0.23
2023-04-11T11:07:17.616Z,0.30
2023-04-11T11:09:51.051Z,0.50
2023-04-11T11:12:18.480Z,0.60
2023-04-11T11:14:46.710Z,0.68
2023-04-11T11:17:15.150Z,0.25
2023-04-11T11:19:46.626Z,0.52
2023-04-11T11:22:26.541Z,0.50
2023-04-11T11:24:53.653Z,0.30
2023-04-11T11:27:24.920Z,0.60
2023-04-11T11:29:52.892Z,0.55
2023-04-11T11:32:28.381Z,0.60
2023-04-11T11:34:55.573Z,0.38
2023-04-11T11:37:23.122Z,0.40
2023-04-11T11:39:51.096Z,0.45
2023-04-11T11:42:18.407Z,0.60
2023-04-11T11:44:45.118Z,0.30
2023-04-11T11:47:15.063Z,0.40
2023-04-11T11:49:49.602Z,0.50
2023-04-11T11:52:36.421Z,0.40
2023-04-11T11:55:08.101Z,0.43
2023-04-11T11:57:37.444Z,0.30
2023-04-11T12:00:10.227Z,0.60
2023-04-11T12:02:39.394Z,0.65
2023-04-11T12:05:07.503Z,0.55
2023-04-11T12:07:37.246Z,0.70
2023-04-11T12:10:09.409Z,0.50
2023-04-11T12:12:37.427Z,0.65
2023-04-11T12:15:11.963Z,0.40
2023-04-11T12:17:39.471Z,0.88
2023-04-11T12:20:15.830Z,0.57
2023-04-11T12:22:42.693Z,0.45
2023-04-11T12:25:12.061Z,0.57
2023-04-11T12:27:40.479Z,0.60
2023-04-11T12:30:08.318Z,0.98
2023-04-11T12:32:35.681Z,0.50
2023-04-11T12:35:04.384Z,0.52
2023-04-11T12:37:31.824Z,0.50
2023-04-11T12:39:58.508Z,0.40
2023-04-11T12:42:27.239Z,0.40
2023-04-11T12:44:54.839Z,0.75
2023-04-11T12:47:21.443Z,0.40
2023-04-11T12:49:48.378Z,0.63
2023-04-11T12:52:15.226Z,0.60
2023-04-11T12:54:41.850Z,0.40
2023-04-11T12:57:09.036Z,0.55
2023-04-11T12:59:35.605Z,0.88
2023-04-11T13:02:02.475Z,0.50
2023-04-11T13:04:29.313Z,0.60
2023-04-11T13:07:00.945Z,0.50
2023-04-11T13:11:59.191Z,0.77
2023-04-11T13:14:26.124Z,0.50
2023-04-11T13:16:52.834Z,0.50
2023-04-11T13:19:21.299Z,0.47
2023-04-11T13:21:48.311Z,0.40
2023-04-11T13:24:15.211Z,0.47
2023-04-11T13:26:42.051Z,0.30
2023-04-11T13:29:08.855Z,0.38
2023-04-11T13:31:35.813Z,0.40
2023-04-11T13:34:02.606Z,0.40
2023-04-11T13:36:29.574Z,0.40
2023-04-11T13:38:57.584Z,0.43
2023-04-11T13:41:25.365Z,0.35
2023-04-11T13:43:52.665Z,0.50
2023-04-11T13:46:20.038Z,0.40
2023-04-11T13:48:46.816Z,0.22
2023-04-11T13:51:13.924Z,0.43
2023-04-11T13:53:40.762Z,0.60
2023-04-11T13:56:08.163Z,0.38
2023-04-11T13:58:35.298Z,0.38
2023-04-11T14:01:02.035Z,0.40
2023-04-11T14:03:33.218Z,0.47
2023-04-11T14:06:01.111Z,0.50
2023-04-11T14:08:28.713Z,0.55
2023-04-11T14:10:55.984Z,0.80
2023-04-11T14:13:22.809Z,0.70
2023-04-11T14:16:01.011Z,1.00
2023-04-11T14:18:34.573Z,0.60
2023-04-11T14:21:01.786Z,0.60
2023-04-11T14:23:29.352Z,0.80
2023-04-11T14:25:56.846Z,1.02
2023-04-11T14:28:26.508Z,1.10
2023-04-11T14:30:53.780Z,0.60
2023-04-11T14:33:20.851Z,0.50
2023-04-11T14:35:47.687Z,0.30
2023-04-11T14:38:15.786Z,0.50
2023-04-11T14:40:44.588Z,0.60
2023-04-11T14:43:11.666Z,0.38
2023-04-11T14:45:38.351Z,0.63
2023-04-11T14:48:05.592Z,0.57
2023-04-11T14:50:32.730Z,1.00
2023-04-11T14:52:59.721Z,0.47
2023-04-11T14:55:26.537Z,0.35
2023-04-11T14:57:55.321Z,0.80
2023-04-11T15:00:24.611Z,1.20
2023-04-11T15:02:54.277Z,0.40
2023-04-11T15:05:22.533Z,0.30
2023-04-11T15:07:51.889Z,0.30
2023-04-11T15:10:21.046Z,0.30
2023-04-11T15:12:47.810Z,0.55
2023-04-11T15:15:14.740Z,0.30
2023-04-11T15:17:50.202Z,0.50
2023-04-11T15:20:16.934Z,0.40
2023-04-11T15:22:46.684Z,0.30
2023-04-11T15:25:16.699Z,0.40
2023-04-11T15:27:43.894Z,0.38
2023-04-11T15:30:11.501Z,0.55
2023-04-11T15:32:42.805Z,0.60
2023-04-11T15:35:09.938Z,0.30
2023-04-11T15:37:36.478Z,0.40
2023-04-11T15:40:06.327Z,0.40
2023-04-11T15:42:35.551Z,0.32
2023-04-11T15:45:02.740Z,0.90
2023-04-11T15:47:30.564Z,0.57
2023-04-11T15:49:58.962Z,0.40
2023-04-11T15:52:25.658Z,0.50
2023-04-11T15:54:52.331Z,0.32
2023-04-11T15:57:19.753Z,0.43
2023-04-11T15:59:46.496Z,0.50
2023-04-11T16:02:15.185Z,0.80
2023-04-11T16:04:44.696Z,0.50
2023-04-11T16:07:13.920Z,0.60
2023-04-11T16:09:40.753Z,0.90
2023-04-11T16:12:07.797Z,0.32
2023-04-11T16:14:34.787Z,0.65
2023-04-11T16:17:01.499Z,0.38
2023-04-11T16:19:28.174Z,0.60
2023-04-11T16:21:54.710Z,0.60
2023-04-11T16:24:21.540Z,0.60
2023-04-11T16:26:48.466Z,0.85
2023-04-11T16:29:15.252Z,0.88
2023-04-11T16:31:42.148Z,0.85
2023-04-11T16:34:08.762Z,0.80
2023-04-11T16:36:35.693Z,1.48
2023-04-11T16:39:04.560Z,0.82
2023-04-11T16:41:36.344Z,0.85
2023-04-11T16:44:11.459Z,0.50
2023-04-11T16:46:41.778Z,0.50
2023-04-11T16:49:09.586Z,0.70
2023-04-11T16:51:37.051Z,0.80
2023-04-11T16:54:09.389Z,0.98
2023-04-11T16:56:37.373Z,0.60
2023-04-11T16:59:05.167Z,0.68
2023-04-11T17:01:31.996Z,1.00
2023-04-11T17:03:59.237Z,0.70
2023-04-11T17:06:27.122Z,0.70
2023-04-11T17:08:54.319Z,0.50
2023-04-11T17:11:21.056Z,0.88
2023-04-11T17:13:49.583Z,0.70
2023-04-11T17:16:19.625Z,0.90
2023-04-11T17:18:46.338Z,1.05
2023-04-11T17:21:12.979Z,0.70
2023-04-11T17:23:43.287Z,0.52
2023-04-11T17:26:13.214Z,0.50
2023-04-11T17:28:40.883Z,0.50
2023-04-11T17:31:14.985Z,0.52
2023-04-11T17:33:42.516Z,0.75
2023-04-11T17:36:11.150Z,0.55
2023-04-11T17:38:39.753Z,0.77
2023-04-11T17:41:14.569Z,0.40
2023-04-11T17:43:42.816Z,0.52
2023-04-11T17:46:09.787Z,0.60
2023-04-11T17:48:36.653Z,0.55
2023-04-11T17:51:04.400Z,0.50
2023-04-11T17:53:31.628Z,0.70
2023-04-11T17:55:58.402Z,0.80
2023-04-11T17:58:25.425Z,0.80
2023-04-11T18:00:56.129Z,0.77
2023-04-11T18:03:25.796Z,0.80
2023-04-11T18:05:54.069Z,1.23
2023-04-11T18:08:28.722Z,1.13
2023-04-11T18:11:00.110Z,1.00
2023-04-11T18:13:27.501Z,0.70
2023-04-11T18:15:54.365Z,0.70
2023-04-11T18:18:21.265Z,0.75
2023-04-11T18:20:48.347Z,1.00
2023-04-11T18:23:15.497Z,0.80
2023-04-11T18:25:42.231Z,0.80
2023-04-11T18:28:09.027Z,0.65
2023-04-11T18:30:35.732Z,0.88
2023-04-11T18:33:02.510Z,0.77
2023-04-11T18:35:29.183Z,0.63
2023-04-11T18:37:55.951Z,0.82
2023-04-11T18:40:22.863Z,0.85
2023-04-11T18:42:52.999Z,1.10
2023-04-11T18:45:21.809Z,0.85
2023-04-11T18:47:49.499Z,0.70
2023-04-11T18:50:17.238Z,0.80
2023-04-11T18:52:45.612Z,0.75
2023-04-11T18:55:12.733Z,0.95
2023-04-11T18:57:39.849Z,0.70
2023-04-11T19:00:19.324Z,0.60
2023-04-11T19:02:47.703Z,0.68
2023-04-11T19:05:14.905Z,0.82
2023-04-11T19:07:43.158Z,0.70
2023-04-11T19:10:11.585Z,0.93
2023-04-11T19:12:39.074Z,0.90
2023-04-11T19:15:08.246Z,0.93
2023-04-11T19:17:38.974Z,1.00
2023-04-11T19:20:13.222Z,1.00
2023-04-11T19:22:43.520Z,1.27
2023-04-11T19:25:11.593Z,0.68
2023-04-11T19:27:41.422Z,0.60
2023-04-11T19:30:10.267Z,0.63
2023-04-11T19:32:40.369Z,0.73
2023-04-11T19:35:10.154Z,0.60
2023-04-11T19:37:37.625Z,0.82
2023-04-11T19:40:08.345Z,0.98
2023-04-11T19:42:37.175Z,1.20
2023-04-11T19:45:04.614Z,0.93
2023-04-11T19:47:31.822Z,1.00
2023-04-11T19:50:00.970Z,1.23
2023-04-11T19:52:28.684Z,1.10
2023-04-11T19:54:56.630Z,0.95
2023-04-11T19:57:24.717Z,0.65
2023-04-11T19:59:51.531Z,0.70
2023-04-11T20:02:18.473Z,0.70
2023-04-11T20:04:48.156Z,1.23
2023-04-11T20:07:15.805Z,0.82
2023-04-11T20:09:42.341Z,0.63
2023-04-11T20:12:09.431Z,0.63
2023-04-11T20:14:37.961Z,0.85
2023-04-11T20:17:05.840Z,0.60
2023-04-11T20:19:33.331Z,0.82
2023-04-11T20:22:01.185Z,1.20
2023-04-11T20:24:27.926Z,0.60
2023-04-11T20:26:57.276Z,0.80
2023-04-11T20:31:57.340Z,0.82
2023-04-11T20:34:23.998Z,1.23
2023-04-11T20:36:50.817Z,1.08
2023-04-11T20:39:17.336Z,1.02
2023-04-11T20:41:44.145Z,0.80
2023-04-11T20:44:10.808Z,0.80
2023-04-11T20:46:40.000Z,0.90
2023-04-11T20:49:07.024Z,0.68
2023-04-11T20:51:34.752Z,0.77
2023-04-11T20:54:01.818Z,0.80
2023-04-11T20:56:35.018Z,1.23
2023-04-11T20:59:02.527Z,1.30
2023-04-11T21:01:33.031Z,1.17
2023-04-11T21:04:04.029Z,1.20
2023-04-11T21:06:31.730Z,0.75
2023-04-11T21:09:00.051Z,0.82
2023-04-11T21:11:27.139Z,1.08
2023-04-11T21:13:54.677Z,0.80
2023-04-11T21:16:21.914Z,1.00
2023-04-11T21:18:49.287Z,1.20
2023-04-11T21:21:15.851Z,0.80
2023-04-11T21:23:43.549Z,1.00
2023-04-11T21:26:11.633Z,1.10
2023-04-11T21:28:38.800Z,0.95
2023-04-11T21:31:05.737Z,1.25
2023-04-11T21:33:32.542Z,1.10
2023-04-11T21:35:59.551Z,0.90
2023-04-11T21:38:29.245Z,1.30
2023-04-11T21:40:57.020Z,0.90
2023-04-11T21:43:24.406Z,1.27
2023-04-11T21:45:51.093Z,1.35
2023-04-11T21:48:17.680Z,0.80
2023-04-11T21:50:45.951Z,1.42
2023-04-11T21:53:13.982Z,1.30
2023-04-11T21:55:45.528Z,1.50
2023-04-11T22:00:55.799Z,1.25
2023-04-11T22:03:23.110Z,1.05
2023-04-11T22:05:52.358Z,0.70
2023-04-11T22:08:20.378Z,1.20
2023-04-11T22:10:48.524Z,0.90
2023-04-11T22:13:19.376Z,0.80
2023-04-11T22:15:48.867Z,0.90
2023-04-11T22:18:15.580Z,1.02
2023-04-11T22:20:46.313Z,1.00
2023-04-11T22:23:13.957Z,0.93
2023-04-11T22:25:42.692Z,1.10
2023-04-11T22:28:20.343Z,1.10
2023-04-11T22:30:47.118Z,0.93
2023-04-11T22:33:13.975Z,1.38
2023-04-11T22:35:42.418Z,1.05
2023-04-11T22:38:09.983Z,0.90
2023-04-11T22:40:39.015Z,0.95
2023-04-11T22:43:06.177Z,0.88
2023-04-11T22:45:37.072Z,0.90
2023-04-11T22:48:05.995Z,0.93
2023-04-11T22:50:37.291Z,1.00
2023-04-11T22:53:04.715Z,1.10
2023-04-11T22:55:35.672Z,0.70
2023-04-11T22:58:03.440Z,0.90
2023-04-11T23:00:30.551Z,0.50
2023-04-11T23:02:59.651Z,0.90
2023-04-11T23:05:26.612Z,0.70
2023-04-11T23:07:53.293Z,1.05
2023-04-11T23:10:19.993Z,0.55
2023-04-11T23:12:47.569Z,0.77
2023-04-11T23:15:14.851Z,0.73
2023-04-11T23:17:41.760Z,0.70
2023-04-11T23:20:11.015Z,0.90
2023-04-11T23:22:37.567Z,0.70
2023-04-11T23:25:05.399Z,0.60
2023-04-11T23:27:32.639Z,0.70
2023-04-11T23:29:59.857Z,0.73
2023-04-11T23:32:27.161Z,0.55
2023-04-11T23:34:54.246Z,0.70
2023-04-11T23:37:20.943Z,0.57
2023-04-11T23:39:47.623Z,0.70
2023-04-11T23:42:14.398Z,0.77
2023-04-11T23:44:41.295Z,0.95
2023-04-11T23:47:07.932Z,0.80
2023-04-11T23:49:34.714Z,0.90
2023-04-11T23:52:01.421Z,0.80
2023-04-11T23:54:30.444Z,0.60
2023-04-11T23:56:58.392Z,0.80
2023-04-11T23:59:25.254Z,0.85
